createdAt,value
2018-04-24T00:01:10.899Z,1010.9
2018-04-24T00:11:23.864Z,1011.1
2018-04-24T00:22:13.363Z,1010.8
2018-04-24T00:32:29.154Z,1010.5
2018-04-24T00:43:14.168Z,1010.5
2018-04-24T00:54:03.553Z,1010.5
2018-04-24T01:04:18.886Z,1010.2
2018-04-24T01:14:34.564Z,1010.2
2018-04-24T01:25:22.964Z,1010.4
2018-04-24T01:35:36.150Z,1010.5
2018-04-24T01:50:10.692Z,1010.5
2018-04-24T02:00:59.911Z,1010.2
2018-04-24T02:13:50.525Z,1010.0
2018-04-24T02:24:36.076Z,1010.4
2018-04-24T02:34:50.835Z,1010.2
2018-04-24T02:45:06.669Z,1010.0
2018-04-24T02:55:20.804Z,1010.1
2018-04-24T03:05:35.337Z,1010.1
2018-04-24T03:16:24.320Z,1010.1
2018-04-24T03:26:42.981Z,1010.3
2018-04-24T03:37:37.230Z,1010.3
2018-04-24T03:48:00.618Z,1010.2
2018-04-24T03:58:16.247Z,1010.1
2018-04-24T04:10:16.928Z,1009.9
2018-04-24T04:32:00.222Z,1010.0
2018-04-24T04:42:14.729Z,1010.1
2018-04-24T04:52:30.498Z,1010.3
2018-04-24T05:03:28.952Z,1010.4
2018-04-24T05:14:23.844Z,1010.3
2018-04-24T05:24:39.614Z,1010.4
2018-04-24T05:34:55.541Z,1010.2
2018-04-24T05:45:11.293Z,1010.2
2018-04-24T06:09:32.750Z,1010.4
2018-04-24T06:19:47.749Z,1010.4
2018-04-24T06:42:09.859Z,1010.4
2018-04-24T07:16:21.623Z,1010.8
2018-04-24T07:26:36.929Z,1011.0
2018-04-24T07:37:23.893Z,1011.0
2018-04-24T07:47:37.081Z,1011.1
2018-04-24T07:57:52.184Z,1011.0
2018-04-24T08:08:56.741Z,1010.9
2018-04-24T08:19:08.470Z,1011.1
2018-04-24T08:29:31.431Z,1011.1
2018-04-24T08:50:18.105Z,1011.3
2018-04-24T09:00:32.560Z,1011.4
2018-04-24T09:10:48.931Z,1011.3
2018-04-24T09:21:03.398Z,1011.5
2018-04-24T09:31:26.235Z,1011.3
2018-04-24T09:41:40.411Z,1011.4
2018-04-24T09:51:54.970Z,1011.4
2018-04-24T10:02:25.287Z,1011.5
2018-04-24T10:22:56.776Z,1011.3
2018-04-24T10:33:28.583Z,1011.2
2018-04-24T10:43:53.648Z,1011.2
2018-04-24T10:54:06.139Z,1011.2
2018-04-24T11:04:24.676Z,1011.3
2018-04-24T11:14:52.091Z,1011.4
2018-04-24T11:25:07.363Z,1011.4
2018-04-24T11:35:22.045Z,1011.5
2018-04-24T11:45:36.140Z,1011.5
2018-04-24T11:56:35.456Z,1011.4
2018-04-24T12:17:37.626Z,1011.4
2018-04-24T12:28:04.202Z,1011.3
2018-04-24T12:38:28.353Z,1011.3
2018-04-24T12:48:40.161Z,1011.3
2018-04-24T12:59:02.816Z,1011.3
2018-04-24T13:09:36.591Z,1011.3
2018-04-24T13:19:50.819Z,1011.2
2018-04-24T13:30:05.436Z,1011.3
2018-04-24T13:40:19.252Z,1011.0
2018-04-24T13:51:05.152Z,1011.0
2018-04-24T14:01:51.063Z,1010.9
2018-04-24T14:22:54.658Z,1010.5
2018-04-24T14:33:45.272Z,1010.5
2018-04-24T14:43:59.807Z,1010.3
2018-04-24T14:55:11.293Z,1010.1
2018-04-24T15:05:25.414Z,1010.0
2018-04-24T15:16:00.522Z,1009.8
2018-04-24T15:26:27.799Z,1009.8
2018-04-24T15:36:53.698Z,1009.7
2018-04-24T15:47:23.021Z,1009.9
2018-04-24T15:59:20.038Z,1009.7
2018-04-24T16:10:47.618Z,1009.6
2018-04-24T16:21:15.999Z,1009.5
2018-04-24T16:32:24.511Z,1009.4
2018-04-24T16:43:26.252Z,1009.2
2018-04-24T16:54:14.322Z,1009.2
2018-04-24T17:05:16.052Z,1009.1
2018-04-24T17:15:33.457Z,1008.9
2018-04-24T17:43:22.945Z,1008.7
2018-04-24T18:14:46.610Z,1008.3
2018-04-24T18:38:29.546Z,1007.9
2018-04-24T19:03:08.756Z,1007.8
2018-04-24T19:14:38.636Z,1007.5
2018-04-24T19:44:05.581Z,1007.5
2018-04-24T19:55:17.300Z,1007.5
2018-04-24T20:06:06.740Z,1007.4
2018-04-24T20:16:53.395Z,1007.3
2018-04-24T20:28:03.227Z,1007.1
2018-04-24T20:38:34.555Z,1007.0
2018-04-24T20:49:50.193Z,1007.0
2018-04-24T21:01:05.710Z,1006.7
2018-04-24T21:12:41.747Z,1006.5
2018-04-24T21:23:32.265Z,1006.2
2018-04-24T21:35:15.611Z,1005.9
2018-04-24T21:46:37.507Z,1005.7
2018-04-24T21:57:24.674Z,1005.5
2018-04-24T22:07:58.642Z,1005.3
2018-04-24T22:18:41.577Z,1005.0
2018-04-24T22:29:13.032Z,1005.0
2018-04-24T22:50:32.469Z,1004.6
2018-04-24T23:01:26.354Z,1004.5
2018-04-24T23:12:02.353Z,1004.1
2018-04-24T23:33:35.807Z,1003.9
2018-04-24T23:44:24.646Z,1003.6
